• Join FlightAware (Why Join?)
  • Login
  • US Flag 
12:32PM EDT


 

Airport Tracker/Info


-or-


 

Live Flight TrackerFlight Track Log ✈ WIS700 ✈ 09-May-2012 ✈ KANE - KDPA

Flight Track Log - Related Links

Times and Time Zones

All times are in EDT time to prevent confusion due to time zone crossing. See the WIS700 flight status page for this flight to view local times or setup timezone preferences in your user account.

Time Position Orientation Groundspeed Altitude Reporting Facility
EDT Latitude Longitude Course Direction KTS MPH feet Rate Location/Type
10:21PM 45.1653 -93.1992 87° East 114 131 1,600  Level FAA TRACON SMA TRACON (SMA)
10:21PM 45.1664 -93.1647 106° East 125 144 2,400 1,200 Climbing FAA TRACON SMA TRACON (SMA)
10:22PM 45.1603 -93.1350 107° East 114 131 3,200 1,080 Climbing FAA TRACON SMA TRACON (SMA)
10:23PM 45.1542 -93.1064 109° East 122 140 3,900 1,020 Climbing FAA TRACON SMA TRACON (SMA)
10:23PM 45.1464 -93.0744 116° Southeast 127 146 4,600 720 Climbing FAA TRACON SMA TRACON (SMA)
10:24PM 45.1347 -93.0408 136° Southeast 142 163 4,900 180 Climbing FAA TRACON SMA TRACON (SMA)
10:25PM 45.1139 -93.0119 137° Southeast 169 194 4,900  Level FAA TRACON SMA TRACON (SMA)
10:25PM 45.0886 -92.9781 137° Southeast 185 213 4,900  Level FAA TRACON SMA TRACON (SMA)
10:26PM 45.0625 -92.9431 135° Southeast 188 216 4,900  Level FAA TRACON SMA TRACON (SMA)
10:27PM 45.0400 -92.9108 133° Southeast 189 217 4,900  Level FAA TRACON SMA TRACON (SMA)
10:27PM 45.0150 -92.8733 133° Southeast 187 215 4,900  Level FAA TRACON SMA TRACON (SMA)
10:28PM 44.9897 -92.8353 131° Southeast 193 222 4,900  Level FAA TRACON SMA TRACON (SMA)
10:29PM 44.9683 -92.8011 134° Southeast 191 220 4,900  Level FAA TRACON SMA TRACON (SMA)
10:29PM 44.9419 -92.7625 133° Southeast 194 223 4,900  Level FAA TRACON SMA TRACON (SMA)
10:30PM 44.9172 -92.7250 135° Southeast 194 223 4,900  Level FAA TRACON SMA TRACON (SMA)
10:31PM 44.8931 -92.6906 131° Southeast 201 231 4,900  Level FAA TRACON SMA TRACON (SMA)
10:31PM 44.8694 -92.6522 135° Southeast 195 224 4,900  Level FAA TRACON SMA TRACON (SMA)
10:32PM 44.8425 -92.6142 130° Southeast 199 229 4,900  Level FAA TRACON SMA TRACON (SMA)
10:33PM 44.8217 -92.5797 133° Southeast 192 221 4,900  Level FAA TRACON SMA TRACON (SMA)
10:33PM 44.7958 -92.5411 133° Southeast 194 223 4,900  Level FAA TRACON SMA TRACON (SMA)
10:34PM 44.7706 -92.5031 133° Southeast 197 227 4,900  Level FAA TRACON SMA TRACON (SMA)
10:35PM 44.7483 -92.4700 131° Southeast 192 221 4,900  Level FAA TRACON SMA TRACON (SMA)
10:35PM 44.7244 -92.4314 133° Southeast 188 216 4,900 360 Level FAA TRACON SMA TRACON (SMA)
10:36PM 44.7008 -92.3958 138° Southeast 173 199 5,400 720 Climbing FAA TRACON SMA TRACON (SMA)
10:37PM 44.6778 -92.3669 137° Southeast 186 214 5,900 1,140 Climbing FAA TRACON SMA TRACON (SMA)
10:37PM 44.6581 -92.3411 135° Southeast 141 162 7,000 1,200 Climbing FAA TRACON SMA TRACON (SMA)
10:38PM 44.6400 -92.3161 125° Southeast 132 152 7,600 780 Climbing FAA TRACON SMA TRACON (SMA)
10:39PM 44.6264 -92.2886 133° Southeast 142 163 8,100 780 Climbing FAA TRACON SMA TRACON (SMA)
10:39PM 44.6072 -92.2594 131° Southeast 147 169 8,700 600 Climbing FAA TRACON SMA TRACON (SMA)
10:40PM 44.5878 -92.2278 130° Southeast 158 182 8,900 120 Climbing FAA TRACON SMA TRACON (SMA)
10:41PM 44.5681 -92.1944 132° Southeast 181 208 8,900 -120 Level FAA TRACON SMA TRACON (SMA)
10:41PM 44.5433 -92.1558 131° Southeast 193 222 8,800 -120 Descending FAA TRACON SMA TRACON (SMA)
10:42PM 44.5189 -92.1167 129° Southeast 195 224 8,800 480 Level FAA TRACON SMA TRACON (SMA)
10:43PM 44.4975 -92.0800 129° Southeast 198 228 9,500 60 Climbing FAA TRACON SMA TRACON (SMA)
10:43PM 44.4736 -92.0389 132° Southeast 198 228 8,900 -480 Descending FAA TRACON SMA TRACON (SMA)
10:44PM 44.4481 -91.9994 135° Southeast 198 228 8,900  Level FAA TRACON SMA TRACON (SMA)
10:47PM 44.3578 -91.8714 135° Southeast 188 216 8,900  Level Minneapolis Center
10:48PM 44.3153 -91.8117 130° Southeast 188 216 8,900  Level Minneapolis Center
10:49PM 44.2811 -91.7547 130° Southeast 188 216 8,900  Level Minneapolis Center
10:50PM 44.2469 -91.6978 139° Southeast 194 223 8,900  Level Minneapolis Center
10:51PM 44.2067 -91.6497 132° Southeast 188 216 8,900  Level Minneapolis Center
10:52PM 44.1703 -91.5931 131° Southeast 188 216 8,900  Level Minneapolis Center
10:53PM 44.1381 -91.5419 130° Southeast 195 224 8,900  Level Minneapolis Center
10:54PM 44.1017 -91.4825 129° Southeast 195 224 8,900  Level Minneapolis Center
10:55PM 44.0672 -91.4228 132° Southeast 195 224 8,900  Level Minneapolis Center
10:56PM 44.0308 -91.3664 132° Southeast 190 219 8,900  Level Minneapolis Center
10:57PM 43.9944 -91.3100 130° Southeast 190 219 8,900  Level Minneapolis Center
10:59PM 43.9258 -91.1969 129° Southeast 186 214 8,900  Level Chicago Center
11:00PM 43.8914 -91.1383 131° Southeast 192 221 8,900  Level Chicago Center
11:01PM 43.8567 -91.0828 131° Southeast 192 221 8,900  Level Chicago Center
11:02PM 43.8222 -91.0269 131° Southeast 187 215 9,000  Climbing Chicago Center
11:03PM 43.7833 -90.9656 128° Southeast 187 215 8,900 -60 Descending Chicago Center
11:04PM 43.7467 -90.9014 129° Southeast 187 215 8,900  Level Chicago Center
11:05PM 43.7119 -90.8431 131° Southeast 187 215 8,900  Level Chicago Center
11:06PM 43.6753 -90.7847 132° Southeast 187 215 8,900  Level Chicago Center
11:07PM 43.6386 -90.7294 133° Southeast 192 221 8,900  Level Chicago Center
11:08PM 43.6017 -90.6742 133° Southeast 192 221 8,900  Level Chicago Center
11:09PM 43.5647 -90.6189 131° Southeast 192 221 8,900  Level Chicago Center
11:10PM 43.5300 -90.5639 134° Southeast 192 221 8,900  Level Chicago Center
11:11PM 43.4908 -90.5086 131° Southeast 199 229 8,900  Level Chicago Center
11:12PM 43.4561 -90.4536 133° Southeast 199 229 8,900  Level Chicago Center
11:13PM 43.4189 -90.3986 131° Southeast 199 229 8,900  Level Chicago Center
11:14PM 43.3819 -90.3408 131° Southeast 199 229 8,900  Level Chicago Center
11:15PM 43.3469 -90.2861 133° Southeast 199 229 8,900  Level Chicago Center
11:16PM 43.3119 -90.2342 134° Southeast 204 235 8,900  Level Chicago Center
11:17PM 43.2750 -90.1825 135° Southeast 197 227 8,900  Level Chicago Center
11:18PM 43.2356 -90.1278 131° Southeast 197 227 8,900  Level Chicago Center
11:19PM 43.1986 -90.0703 133° Southeast 197 227 8,900  Level Chicago Center
11:20PM 43.1614 -90.0158 132° Southeast 197 227 8,900  Level Chicago Center
11:21PM 43.1242 -89.9586 133° Southeast 191 220 8,900  Level Chicago Center
11:22PM 43.0869 -89.9042 134° Southeast 201 231 8,900  Level Chicago Center
11:23PM 43.0372 -89.8328 137° Southeast 201 231 8,900 -240 Level Chicago Center
11:41PM 42.3000 -88.9000 133° Southeast 213 245 4,900 -240 Descending Chicago TRACON
11:45PM 42.1500 -88.6833 132° Southeast 195 224 4,900 -120 Level Chicago TRACON
11:46PM 42.1167 -88.6333 124° Southeast 206 237 4,500 -540 Descending Chicago TRACON
11:47PM 42.0833 -88.5667 124° Southeast 212 244 3,900 -660 Descending Chicago TRACON
11:48PM 42.0500 -88.5000 109° East 214 246 3,200 -660 Descending Chicago TRACON
11:49PM 42.0333 -88.4333 135° Southeast 210 242 2,600 -600 Descending Chicago TRACON
11:50PM 41.9833 -88.3667 109° East 198 228 2,000 -420 Descending Chicago TRACON
11:51PM 41.9667 -88.3000 124° Southeast 170 196 1,800 -300 Descending Chicago TRACON
11:52PM 41.9500 -88.2667 311° West 125 144 1,400 -420 Descending Chicago TRACON
11:59PM 42.1783 -88.6266 136° Southeast  Level FlightAware Approximate
12:00AM 42.1416 -88.5782 136° Southeast  Level FlightAware Approximate